createdAt,value
2023-03-23T16:00:25.229Z,51.14
2023-03-23T16:03:38.033Z,51.14
2023-03-23T16:06:46.110Z,51.13
2023-03-23T16:09:52.840Z,51.11
2023-03-23T16:13:00.319Z,51.14
2023-03-23T16:16:07.702Z,51.18
2023-03-23T16:19:15.120Z,51.15
2023-03-23T16:22:21.471Z,51.15
2023-03-23T16:25:27.279Z,51.25
2023-03-23T16:28:33.137Z,51.30
2023-03-23T16:31:38.831Z,51.33
2023-03-23T16:34:45.826Z,51.33
2023-03-23T16:37:50.830Z,51.37
2023-03-23T16:40:57.481Z,51.43
2023-03-23T16:44:03.526Z,51.44
2023-03-23T16:47:09.224Z,51.50
2023-03-23T16:50:14.643Z,51.53
2023-03-23T16:53:23.674Z,51.59
2023-03-23T16:56:31.000Z,51.62
2023-03-23T16:59:38.053Z,51.64
2023-03-23T17:02:44.386Z,51.67
2023-03-23T17:05:52.490Z,51.66
2023-03-23T17:08:58.129Z,51.64
2023-03-23T17:12:04.387Z,51.65
2023-03-23T17:15:10.025Z,51.69
2023-03-23T17:18:17.498Z,51.78
2023-03-23T17:21:24.006Z,51.83
2023-03-23T17:24:32.021Z,51.94
2023-03-23T17:27:39.112Z,52.01
2023-03-23T17:30:44.914Z,52.05
2023-03-23T17:33:51.756Z,52.07
2023-03-23T17:36:58.671Z,52.13
2023-03-23T17:40:06.420Z,52.20
2023-03-23T17:43:15.748Z,52.26
2023-03-23T17:46:23.628Z,52.38
2023-03-23T17:49:30.670Z,52.51
2023-03-23T17:52:36.798Z,52.62
2023-03-23T17:55:44.349Z,52.77
2023-03-23T17:58:51.714Z,52.88
2023-03-23T18:01:57.814Z,52.97
2023-03-23T18:05:07.126Z,53.07
2023-03-23T18:08:12.500Z,53.21
2023-03-23T18:11:18.650Z,53.25
2023-03-23T18:14:25.474Z,53.37
2023-03-23T18:17:30.735Z,53.44
2023-03-23T18:20:37.245Z,53.45
2023-03-23T18:23:52.961Z,53.51
2023-03-23T18:26:51.252Z,53.59
2023-03-23T18:29:58.514Z,53.64
2023-03-23T18:33:05.385Z,53.71
2023-03-23T18:36:16.180Z,53.75
2023-03-23T18:39:23.026Z,53.85
2023-03-23T18:42:29.308Z,53.98
2023-03-23T18:45:35.546Z,54.09
2023-03-23T18:48:44.288Z,54.18
2023-03-23T18:51:50.738Z,54.38
2023-03-23T18:54:57.256Z,54.53
2023-03-23T18:58:06.496Z,54.62
2023-03-23T19:01:15.521Z,54.78
2023-03-23T19:04:25.393Z,54.96
2023-03-23T19:07:31.618Z,55.13
2023-03-23T19:10:38.045Z,55.26
2023-03-23T19:13:58.435Z,55.29
2023-03-23T19:16:54.296Z,55.38
2023-03-23T19:20:03.048Z,55.44
2023-03-23T19:23:11.604Z,55.40
2023-03-23T19:26:17.509Z,55.33
2023-03-23T19:29:30.338Z,55.37
2023-03-23T19:32:38.019Z,55.50
2023-03-23T19:35:44.510Z,55.67
2023-03-23T19:38:50.848Z,55.86
2023-03-23T19:41:59.140Z,55.98
2023-03-23T19:45:05.770Z,56.17
2023-03-23T19:48:16.103Z,56.30
2023-03-23T19:51:22.656Z,56.43
2023-03-23T19:54:27.292Z,56.53
2023-03-23T19:57:35.107Z,56.65
2023-03-23T20:00:44.249Z,56.65
2023-03-23T20:03:51.521Z,56.70
2023-03-23T20:06:59.181Z,56.82
2023-03-23T20:10:06.598Z,56.95
2023-03-23T20:13:13.006Z,57.04
2023-03-23T20:16:19.329Z,57.14
2023-03-23T20:19:24.749Z,57.14
2023-03-23T20:22:31.683Z,57.19
2023-03-23T20:25:40.215Z,57.27
2023-03-23T20:28:47.852Z,57.36
2023-03-23T20:31:57.895Z,57.47
2023-03-23T20:35:03.655Z,57.60
2023-03-23T20:38:10.121Z,57.73
2023-03-23T20:41:19.609Z,57.85
2023-03-23T20:44:29.521Z,57.92
2023-03-23T20:47:36.972Z,57.99
2023-03-23T20:50:42.985Z,58.03
2023-03-23T20:53:48.341Z,58.04
2023-03-23T20:56:56.249Z,58.07
2023-03-23T21:00:07.601Z,58.11
2023-03-23T21:03:15.339Z,58.14
2023-03-23T21:06:26.022Z,58.19
2023-03-23T21:09:32.550Z,58.21
2023-03-23T21:12:40.689Z,58.21
2023-03-23T21:15:47.884Z,58.25
2023-03-23T21:18:56.550Z,58.27
2023-03-23T21:22:04.413Z,58.29
2023-03-23T21:25:09.931Z,58.32
2023-03-23T21:28:16.677Z,58.34
2023-03-23T21:31:23.722Z,58.35
2023-03-23T21:34:29.770Z,58.26
2023-03-23T21:37:35.623Z,58.20
2023-03-23T21:40:43.519Z,58.14
2023-03-23T21:43:52.212Z,58.05
2023-03-23T21:46:59.475Z,58.04
2023-03-23T21:50:05.569Z,58.06
2023-03-23T21:53:13.676Z,58.10
2023-03-23T21:56:21.317Z,58.17
2023-03-23T21:59:27.045Z,58.18
2023-03-23T22:02:34.844Z,58.16
2023-03-23T22:05:41.587Z,58.17
2023-03-23T22:08:50.056Z,58.13
2023-03-23T22:11:56.499Z,58.10
2023-03-23T22:15:02.859Z,58.11
2023-03-23T22:18:11.818Z,58.08
2023-03-23T22:21:19.361Z,58.10
2023-03-23T22:24:25.891Z,58.14
2023-03-23T22:27:32.130Z,58.20
2023-03-23T22:30:40.261Z,58.29
2023-03-23T22:33:46.652Z,58.35
2023-03-23T22:36:53.530Z,58.43
2023-03-23T22:40:00.364Z,58.57
2023-03-23T22:43:06.574Z,58.71
2023-03-23T22:46:13.476Z,58.80
2023-03-23T22:49:21.424Z,58.86
2023-03-23T22:52:28.303Z,58.89
2023-03-23T22:55:34.216Z,58.94
2023-03-23T22:58:40.415Z,59.02
2023-03-23T23:01:46.489Z,59.03
2023-03-23T23:04:53.237Z,59.09
2023-03-23T23:07:58.986Z,59.12
2023-03-23T23:11:08.293Z,59.15
2023-03-23T23:14:14.157Z,59.14
2023-03-23T23:17:21.077Z,59.14
2023-03-23T23:20:27.099Z,59.17
2023-03-23T23:23:34.449Z,59.17
2023-03-23T23:26:42.030Z,59.18
2023-03-23T23:29:46.981Z,59.18
2023-03-23T23:32:54.373Z,59.16
2023-03-23T23:36:03.033Z,59.17
2023-03-23T23:39:10.320Z,59.16
2023-03-23T23:42:16.495Z,59.19
2023-03-23T23:45:23.581Z,59.17
2023-03-23T23:48:29.419Z,59.18
2023-03-23T23:51:36.144Z,59.19
2023-03-23T23:54:44.874Z,59.24
2023-03-23T23:57:52.114Z,59.23
